Decoded Metar for KLWT (LEWISTOWN in MT, USA) (IATA:LWT) | Meteo·Mobile Aviation Weather
aviador You're here:

KLWT Decoded Metar

LEWISTOWN in MT, USA
Report Time2018-11-17 01:54:00
UTC Time2018-11-17 02:09:23
Flight Rules lifr LIFR
Wind320° at 07 kt
W.Decomp.*RWY 31: 7.0 kt HW 0.6 kt LCW
RWY 26: 4.9 kt HW 4.9 kt RCW
RWY 03: 0.6 kt HW 7 kt LCW
W.Rank320° ranks 17
Current wind is below 320° avg. (8.7)
Visibility9999 m
Phenomena:N/A
Clouds:Overcast 004 Hf
Expected CloudBase > 400 ft AGL from Temp-Dew spread
Ceiling400 ft
Temp-8°C (ISA -15)
Dew Point-9°C (93% RH)
AAT-13.5°C
QNH1028 hPa
Density Alt1,903 ft
Elevation4,167 ft
Report Wrong Elevation
Raw Report
KLWT 170154Z AUTO 32007KT 10SM OVC004 M08/M09 A3036 RMK AO2 SLP322
T10831089=

Extra information for KLWT:More info

Metar Taf Metar & Taf Last 4 Metars F.Rules Stats Wind Profile Meteogram Temp Stats Airport Information Weather charts Add Link Nearby VenuesMetar ALERT Operation Metar Decoded Social comments

AIRNAV info for KLWT